Time;durP1;ratioP1;P1;durP2;ratioP2;P2;SDS_P1;SDS_P2;PMS_P1;PMS_P2;Temp;Humidity;BMP_temperature;BMP_pressure;BME280_temperature;BME280_humidity;BME280_pressure;Samples;Min_cycle;Max_cycle;Signal;HPM_P1;HPM_P2
2022/03/21 00:01:27;;;;;;;14.27;9.23;;;2.90;77.60;;;;;;5081428;28;20221;-48
2022/03/21 00:03:54;;;;;;;20.30;12.85;;;2.70;77.90;;;;;;5081628;28;20439;-45
2022/03/21 00:06:22;;;;;;;17.10;10.55;;;2.80;77.90;;;;;;5080940;28;20286;-45
2022/03/21 00:08:49;;;;;;;18.65;10.85;;;2.80;78.40;;;;;;5081827;28;20210;-46
2022/03/21 00:11:17;;;;;;;14.60;10.05;;;2.90;78.40;;;;;;5081444;28;20608;-45
2022/03/21 00:13:44;;;;;;;21.17;10.75;;;3.00;77.60;;;;;;5082033;28;20201;-45
2022/03/21 00:16:12;;;;;;;23.98;11.27;;;2.80;77.90;;;;;;5081706;28;20565;-48
2022/03/21 00:18:40;;;;;;;22.35;11.63;;;2.70;78.10;;;;;;5081451;28;20205;-46
2022/03/21 00:21:07;;;;;;;21.52;10.68;;;2.80;78.70;;;;;;5081902;28;20220;-49
2022/03/21 00:23:35;;;;;;;15.23;10.45;;;2.60;79.30;;;;;;5081368;28;20206;-46
2022/03/21 00:26:04;;;;;;;15.02;10.98;;;2.40;79.80;;;;;;5082347;28;20210;-46
2022/03/21 00:28:31;;;;;;;15.88;11.48;;;2.40;79.70;;;;;;5081729;28;20197;-46
2022/03/21 00:30:59;;;;;;;15.23;11.05;;;2.40;80.30;;;;;;5081236;28;20538;-47
2022/03/21 00:33:26;;;;;;;18.80;9.57;;;2.00;81.30;;;;;;5080848;28;20271;-47
2022/03/21 00:35:54;;;;;;;12.05;9.38;;;2.30;81.00;;;;;;5082770;28;20203;-45
2022/03/21 00:38:21;;;;;;;16.20;11.57;;;2.30;81.10;;;;;;5083940;28;20230;-49
2022/03/21 00:40:49;;;;;;;15.20;9.85;;;2.20;81.30;;;;;;5081592;28;20262;-46
2022/03/21 00:43:21;;;;;;;17.25;9.93;;;2.30;81.30;;;;;;5081189;28;20397;-44
2022/03/21 00:45:54;;;;;;;13.77;10.20;;;2.20;81.50;;;;;;5080344;28;20248;-48
2022/03/21 00:48:22;;;;;;;22.40;12.25;;;2.10;82.20;;;;;;5080614;28;20203;-44
2022/03/21 00:50:50;;;;;;;18.08;12.20;;;1.90;82.70;;;;;;5080091;28;20584;-46
2022/03/21 00:53:19;;;;;;;18.27;10.20;;;2.00;82.60;;;;;;5080267;28;20218;-46
2022/03/21 00:55:47;;;;;;;18.45;11.02;;;2.00;82.10;;;;;;5081173;28;20200;-47
2022/03/21 00:58:16;;;;;;;14.32;11.48;;;2.10;82.10;;;;;;5080228;28;20219;-44
2022/03/21 01:00:43;;;;;;;16.38;10.40;;;1.90;82.20;;;;;;5084008;28;20209;-50
2022/03/21 01:03:11;;;;;;;15.43;9.82;;;2.10;82.10;;;;;;5091178;28;20203;-50
2022/03/21 01:05:40;;;;;;;18.85;11.70;;;1.90;82.30;;;;;;5091134;28;20208;-49
2022/03/21 01:08:07;;;;;;;17.13;10.52;;;1.80;82.80;;;;;;5089099;28;20260;-51
2022/03/21 01:10:35;;;;;;;19.33;9.70;;;1.90;81.90;;;;;;5082871;28;20446;-42
2022/03/21 01:13:03;;;;;;;16.50;11.30;;;1.90;82.60;;;;;;5081557;28;20192;-46
2022/03/21 01:15:30;;;;;;;15.98;11.30;;;1.90;83.00;;;;;;5080361;28;20199;-44
2022/03/21 01:17:58;;;;;;;16.13;11.65;;;1.90;82.80;;;;;;5080679;28;20607;-47
2022/03/21 01:20:26;;;;;;;15.07;10.75;;;2.00;82.30;;;;;;5079759;28;20226;-48
2022/03/21 01:22:54;;;;;;;16.58;11.35;;;1.90;82.40;;;;;;5081121;28;20196;-45
2022/03/21 01:25:21;;;;;;;17.08;11.75;;;1.80;83.00;;;;;;5080985;28;20506;-47
2022/03/21 01:27:49;;;;;;;16.10;12.32;;;1.70;83.60;;;;;;5080563;28;20200;-49
2022/03/21 01:30:16;;;;;;;19.73;10.48;;;1.70;83.60;;;;;;5080048;28;20474;-46
2022/03/21 01:32:45;;;;;;;12.52;10.63;;;1.70;84.00;;;;;;5080013;28;20205;-44
2022/03/21 01:35:16;;;;;;;16.60;9.90;;;1.70;84.10;;;;;;5079875;28;20246;-43
2022/03/21 01:37:46;;;;;;;13.73;10.27;;;1.70;84.30;;;;;;5080001;28;20216;-48
2022/03/21 01:40:14;;;;;;;15.48;10.38;;;1.70;84.70;;;;;;5079842;28;20215;-44
2022/03/21 01:42:43;;;;;;;15.43;11.23;;;1.70;84.70;;;;;;5080036;28;20200;-48
2022/03/21 01:45:11;;;;;;;24.80;12.90;;;1.70;84.80;;;;;;5080236;28;20553;-48
2022/03/21 01:47:39;;;;;;;18.90;11.25;;;1.70;84.40;;;;;;5087078;28;20207;-49
2022/03/21 01:50:06;;;;;;;16.55;11.02;;;1.80;84.40;;;;;;5086097;28;20253;-47
2022/03/21 01:52:36;;;;;;;16.90;10.90;;;1.80;84.40;;;;;;5083881;28;20203;-47
2022/03/21 01:57:52;;;;;;;16.77;10.35;;;1.80;84.90;;;;;;5080690;28;20224;-47
2022/03/21 02:00:21;;;;;;;20.38;10.45;;;1.50;85.80;;;;;;5079204;28;20226;-46
2022/03/21 02:02:48;;;;;;;25.70;12.07;;;1.50;85.80;;;;;;5081651;28;20200;-45
2022/03/21 02:05:15;;;;;;;18.83;11.70;;;1.70;85.30;;;;;;5083619;28;20285;-44
2022/03/21 02:07:43;;;;;;;25.98;11.02;;;1.80;85.50;;;;;;5083517;28;20229;-48
2022/03/21 02:10:11;;;;;;;15.00;12.38;;;1.70;85.70;;;;;;5083933;28;20230;-48
2022/03/21 02:12:39;;;;;;;19.17;11.63;;;1.70;86.20;;;;;;5081768;28;20230;-43
2022/03/21 02:15:07;;;;;;;16.65;11.20;;;1.50;86.60;;;;;;5083469;28;20267;-49
2022/03/21 02:17:36;;;;;;;16.70;11.65;;;1.50;86.70;;;;;;5083085;28;20223;-46
2022/03/21 02:20:05;;;;;;;20.67;12.65;;;1.40;87.00;;;;;;5082127;28;20207;-46
2022/03/21 02:22:53;;;;;;;20.98;12.05;;;1.50;87.40;;;;;;5082581;28;20195;-44
2022/03/21 02:25:29;;;;;;;18.17;10.02;;;1.40;87.60;;;;;;5083060;28;20199;-46
2022/03/21 02:28:00;;;;;;;13.98;10.57;;;1.40;87.70;;;;;;5083275;28;20210;-46
2022/03/21 02:30:30;;;;;;;17.60;12.00;;;1.40;88.30;;;;;;5081594;28;20214;-45
2022/03/21 02:32:59;;;;;;;19.80;12.07;;;1.40;88.30;;;;;;5083624;28;20208;-44
2022/03/21 02:35:28;;;;;;;19.23;11.93;;;1.30;88.80;;;;;;5082755;28;20203;-46
2022/03/21 02:37:56;;;;;;;15.50;11.57;;;1.30;89.00;;;;;;5083290;28;20226;-48
2022/03/21 02:40:25;;;;;;;22.38;13.48;;;1.20;89.00;;;;;;5082838;28;20225;-46
2022/03/21 02:42:53;;;;;;;22.23;13.20;;;1.30;89.20;;;;;;5084518;28;20274;-44
2022/03/21 02:45:20;;;;;;;15.32;11.48;;;1.30;89.10;;;;;;5091111;28;20591;-47
2022/03/21 02:47:48;;;;;;;18.38;11.70;;;1.20;90.00;;;;;;5089344;28;20262;-46
2022/03/21 02:50:39;;;;;;;20.08;12.00;;;1.10;90.20;;;;;;5096171;28;20222;-48
2022/03/21 02:53:09;;;;;;;21.02;12.43;;;1.00;90.50;;;;;;5103374;28;20291;-44
2022/03/21 02:55:38;;;;;;;17.60;12.77;;;0.90;90.80;;;;;;5102291;28;20194;-46
2022/03/21 02:58:05;;;;;;;20.48;14.52;;;1.00;90.80;;;;;;5102891;28;20417;-47
2022/03/21 03:00:32;;;;;;;16.83;12.02;;;1.20;90.60;;;;;;5106872;28;20218;-45
2022/03/21 03:03:00;;;;;;;18.65;11.93;;;1.10;90.70;;;;;;5108461;28;20221;-47
2022/03/21 03:05:27;;;;;;;19.13;11.95;;;1.10;90.90;;;;;;5087885;28;20278;-47
2022/03/21 03:07:54;;;;;;;25.35;13.95;;;1.00;91.00;;;;;;5083125;28;20200;-45
2022/03/21 03:10:22;;;;;;;20.98;13.05;;;0.90;91.30;;;;;;5082162;28;20223;-46
2022/03/21 03:12:49;;;;;;;18.70;12.90;;;0.70;91.60;;;;;;5082857;28;20510;-49
2022/03/21 03:15:16;;;;;;;20.50;12.75;;;0.80;91.80;;;;;;5081196;28;20510;-45
2022/03/21 03:17:44;;;;;;;22.55;14.48;;;0.90;91.60;;;;;;5083021;28;20222;-47
2022/03/21 03:20:11;;;;;;;18.92;12.90;;;0.80;91.70;;;;;;5082288;28;20260;-48
2022/03/21 03:22:39;;;;;;;21.50;14.70;;;0.80;91.90;;;;;;5082361;28;20195;-45
2022/03/21 03:25:07;;;;;;;30.92;14.13;;;0.80;92.10;;;;;;5082777;28;20195;-46
2022/03/21 03:27:34;;;;;;;16.35;11.88;;;0.70;92.50;;;;;;5082094;28;20205;-45
2022/03/21 03:30:03;;;;;;;24.65;13.98;;;0.70;92.80;;;;;;5083238;28;20604;-43
2022/03/21 03:32:30;;;;;;;18.48;12.43;;;0.70;93.10;;;;;;5083240;28;20199;-44
2022/03/21 03:34:58;;;;;;;19.85;12.48;;;0.50;93.40;;;;;;5082270;28;20199;-49
2022/03/21 03:37:26;;;;;;;22.05;12.52;;;0.50;93.50;;;;;;5082029;28;20261;-45
2022/03/21 03:39:54;;;;;;;20.27;12.90;;;0.50;94.00;;;;;;5080624;28;20223;-43
2022/03/21 03:42:21;;;;;;;19.25;11.43;;;0.50;94.30;;;;;;5081915;28;20421;-41
2022/03/21 03:44:49;;;;;;;26.50;14.07;;;0.30;94.60;;;;;;5081787;28;20224;-44
2022/03/21 03:47:16;;;;;;;24.67;13.05;;;0.40;94.70;;;;;;5082102;28;20207;-46
2022/03/21 03:49:43;;;;;;;21.70;13.32;;;0.40;94.80;;;;;;5081786;28;20261;-43
2022/03/21 03:52:10;;;;;;;25.45;14.32;;;0.50;94.90;;;;;;5081761;28;20206;-49
2022/03/21 03:54:38;;;;;;;23.48;15.52;;;0.30;95.10;;;;;;5081424;28;20533;-47
2022/03/21 03:57:05;;;;;;;19.25;13.00;;;0.20;95.50;;;;;;5081558;28;20230;-48
2022/03/21 03:59:32;;;;;;;21.58;14.63;;;0.30;95.30;;;;;;5081754;28;20202;-43
2022/03/21 04:01:59;;;;;;;19.15;14.18;;;0.30;95.70;;;;;;5081486;28;20202;-46
2022/03/21 04:04:27;;;;;;;27.25;14.10;;;0.30;95.70;;;;;;5080800;28;20206;-50
2022/03/21 04:06:54;;;;;;;26.65;15.60;;;0.30;95.80;;;;;;5080836;28;20198;-44
2022/03/21 04:09:21;;;;;;;24.80;14.52;;;0.30;96.10;;;;;;5083807;28;20502;-48
2022/03/21 04:11:48;;;;;;;25.25;14.60;;;0.30;96.30;;;;;;5085081;28;20214;-45
2022/03/21 04:14:16;;;;;;;21.95;14.88;;;0.40;96.40;;;;;;5082163;28;20195;-46
2022/03/21 04:16:44;;;;;;;21.35;14.07;;;0.10;96.90;;;;;;5081662;28;20199;-45
2022/03/21 04:19:12;;;;;;;27.17;14.68;;;0.20;97.00;;;;;;5081791;28;20199;-48
2022/03/21 04:21:40;;;;;;;23.50;16.42;;;0.10;97.40;;;;;;5081906;28;20211;-47
2022/03/21 04:24:07;;;;;;;25.83;17.00;;;0.20;97.50;;;;;;5081204;28;20297;-47
2022/03/21 04:26:34;;;;;;;21.52;13.95;;;0.10;97.80;;;;;;5080813;28;20409;-46
2022/03/21 04:29:04;;;;;;;35.78;14.98;;;0.10;98.00;;;;;;5080833;28;20213;-46
2022/03/21 04:31:33;;;;;;;29.63;17.88;;;0.10;98.20;;;;;;5080425;28;20222;-45
2022/03/21 04:34:00;;;;;;;25.40;15.55;;;-0.10;98.90;;;;;;5080826;28;20198;-46
2022/03/21 04:36:31;;;;;;;26.05;20.17;;;-0.10;99.20;;;;;;5080658;28;20198;-45
2022/03/21 04:38:58;;;;;;;26.38;15.73;;;-0.10;99.40;;;;;;5080862;28;20223;-46
2022/03/21 04:41:26;;;;;;;25.90;16.50;;;0.00;99.40;;;;;;5080218;28;20221;-47
2022/03/21 04:43:53;;;;;;;26.17;16.77;;;-0.10;99.80;;;;;;5080874;28;20371;-47
2022/03/21 04:46:21;;;;;;;35.40;15.20;;;0.00;99.80;;;;;;5080557;28;20592;-46
2022/03/21 04:48:48;;;;;;;22.45;15.02;;;0.00;99.70;;;;;;5080958;28;20199;-50
2022/03/21 04:51:15;;;;;;;21.58;16.33;;;-0.20;99.90;;;;;;5080499;28;20242;-47
2022/03/21 04:53:43;;;;;;;29.15;15.23;;;-0.10;99.90;;;;;;5080625;28;20207;-46
2022/03/21 04:56:10;;;;;;;24.17;15.82;;;-0.10;99.90;;;;;;5080889;28;20211;-47
2022/03/21 04:58:37;;;;;;;24.17;15.57;;;-0.10;99.90;;;;;;5081194;28;20398;-48
2022/03/21 05:01:05;;;;;;;28.77;18.08;;;-0.10;99.90;;;;;;5077542;28;20247;-47
2022/03/21 05:03:32;;;;;;;29.52;17.15;;;-0.10;99.90;;;;;;5092219;28;20244;-42
2022/03/21 05:06:00;;;;;;;19.77;14.70;;;-0.20;99.90;;;;;;5081988;28;20289;-46
2022/03/21 05:08:27;;;;;;;25.17;16.92;;;-0.20;99.90;;;;;;5081288;28;20202;-47
2022/03/21 05:10:56;;;;;;;23.70;16.38;;;0.00;99.90;;;;;;5079894;28;20222;-47
2022/03/21 05:13:23;;;;;;;23.90;15.82;;;0.00;99.90;;;;;;5080539;28;20630;-46
2022/03/21 05:15:50;;;;;;;26.10;17.00;;;0.10;99.90;;;;;;5080323;28;20198;-46
2022/03/21 05:18:18;;;;;;;20.08;15.27;;;0.10;99.90;;;;;;5077691;28;20222;-49
2022/03/21 05:20:45;;;;;;;26.17;18.00;;;0.30;99.90;;;;;;5069050;28;20212;-45
2022/03/21 05:31:30;;;;;;;27.83;17.48;;;1.00;99.90;;;;;;5063428;28;20224;-45
2022/03/21 05:36:43;;;;;;;22.25;16.05;;;1.40;99.00;;;;;;5092231;28;20207;-48
2022/03/21 05:39:14;;;;;;;25.02;16.50;;;1.70;98.40;;;;;;5099652;28;20219;-46
2022/03/21 05:41:41;;;;;;;31.15;15.55;;;1.90;97.80;;;;;;5100522;28;20262;-47
2022/03/21 05:44:11;;;;;;;28.90;15.88;;;2.20;97.30;;;;;;5099738;28;20198;-47
2022/03/21 05:46:39;;;;;;;27.63;16.92;;;2.50;96.60;;;;;;5100940;28;20201;-47
2022/03/21 05:49:10;;;;;;;28.10;16.67;;;2.80;96.30;;;;;;5104691;28;20239;-50
2022/03/21 05:51:40;;;;;;;22.67;16.20;;;3.30;95.10;;;;;;5107496;28;20225;-46
2022/03/21 05:54:10;;;;;;;18.70;13.52;;;3.90;94.40;;;;;;5085383;28;20217;-48
2022/03/21 05:56:41;;;;;;;26.95;15.70;;;4.30;92.90;;;;;;5076612;28;20533;-46
2022/03/21 06:01:54;;;;;;;33.67;18.98;;;5.00;91.20;;;;;;5080546;28;20221;-45
2022/03/21 06:04:25;;;;;;;31.25;17.85;;;5.10;90.50;;;;;;5078849;28;20202;-46
2022/03/21 06:06:52;;;;;;;29.67;16.48;;;5.20;90.50;;;;;;5079585;28;20203;-44
2022/03/21 06:09:19;;;;;;;24.83;16.92;;;5.30;90.20;;;;;;5079636;28;20281;-47
2022/03/21 06:11:50;;;;;;;30.60;16.05;;;5.60;88.50;;;;;;5079925;28;20227;-49
2022/03/21 06:14:20;;;;;;;26.90;17.90;;;5.90;88.20;;;;;;5079442;28;20203;-48
2022/03/21 06:16:48;;;;;;;29.60;17.50;;;6.10;87.10;;;;;;5079623;28;20270;-47
2022/03/21 06:19:16;;;;;;;27.67;17.35;;;6.50;85.20;;;;;;5078962;28;20531;-46
2022/03/21 06:21:43;;;;;;;27.15;16.55;;;6.70;84.20;;;;;;5079762;28;20231;-47
2022/03/21 06:24:13;;;;;;;32.20;19.88;;;6.80;83.20;;;;;;5079708;28;20192;-45
2022/03/21 06:26:42;;;;;;;25.65;16.90;;;6.40;84.50;;;;;;5079485;28;20227;-49
2022/03/21 06:29:09;;;;;;;35.10;17.10;;;5.90;85.10;;;;;;5079366;28;20198;-46
2022/03/21 06:31:38;;;;;;;30.70;16.90;;;5.20;87.50;;;;;;5079713;28;20250;-46
2022/03/21 06:34:07;;;;;;;24.02;16.33;;;5.90;87.50;;;;;;5078320;28;20206;-47
2022/03/21 06:36:35;;;;;;;30.75;16.70;;;6.30;84.70;;;;;;5079322;28;20198;-50
2022/03/21 06:39:02;;;;;;;23.10;18.33;;;6.60;84.20;;;;;;5079845;28;20355;-48
2022/03/21 06:41:29;;;;;;;24.85;17.85;;;7.20;83.10;;;;;;5079353;28;20215;-46
2022/03/21 06:43:57;;;;;;;30.73;19.73;;;7.30;81.40;;;;;;5079828;28;20271;-47
2022/03/21 06:46:24;;;;;;;29.95;18.00;;;7.10;81.50;;;;;;5079403;28;20205;-47
2022/03/21 06:48:52;;;;;;;33.90;19.23;;;7.10;81.50;;;;;;5080237;28;20210;-45
2022/03/21 06:51:25;;;;;;;28.20;18.15;;;7.20;81.00;;;;;;5082624;28;20228;-47
2022/03/21 06:53:52;;;;;;;31.45;19.13;;;7.00;81.50;;;;;;5082734;28;20200;-48
2022/03/21 06:56:19;;;;;;;27.17;17.55;;;7.50;81.30;;;;;;5083478;28;20212;-46
2022/03/21 06:58:47;;;;;;;25.65;17.70;;;7.90;79.90;;;;;;5082893;28;20225;-52
2022/03/21 07:01:14;;;;;;;27.88;19.02;;;9.10;77.60;;;;;;5082907;28;20427;-47
2022/03/21 07:03:42;;;;;;;23.55;16.65;;;9.90;73.40;;;;;;5082134;28;20214;-47
2022/03/21 07:06:09;;;;;;;28.40;19.05;;;11.00;71.30;;;;;;5082077;28;20191;-47
2022/03/21 07:08:36;;;;;;;26.65;17.77;;;12.50;66.40;;;;;;5082314;28;20202;-46
2022/03/21 07:11:04;;;;;;;24.67;18.83;;;13.00;63.50;;;;;;5082078;28;20468;-48
2022/03/21 07:13:32;;;;;;;27.38;20.75;;;13.30;62.70;;;;;;5082187;28;20195;-46
2022/03/21 07:15:59;;;;;;;28.65;19.25;;;13.80;61.90;;;;;;5082298;28;20207;-49
2022/03/21 07:18:27;;;;;;;22.05;17.00;;;14.60;59.60;;;;;;5082094;28;20485;-48
2022/03/21 07:20:55;;;;;;;28.80;19.40;;;14.30;58.30;;;;;;5081228;28;20233;-47
2022/03/21 07:23:22;;;;;;;26.60;18.77;;;13.40;60.00;;;;;;5082311;28;20206;-47
2022/03/21 07:25:49;;;;;;;28.17;17.87;;;14.30;58.80;;;;;;5082796;28;20430;-47
2022/03/21 07:28:17;;;;;;;24.43;19.67;;;14.30;58.20;;;;;;5082410;28;20454;-50
2022/03/21 07:30:44;;;;;;;27.70;19.33;;;13.80;58.70;;;;;;5082358;28;20696;-46
2022/03/21 07:33:12;;;;;;;32.30;19.87;;;14.30;59.10;;;;;;5085564;28;20430;-45
2022/03/21 07:35:41;;;;;;;27.60;21.63;;;14.50;58.20;;;;;;5082806;28;20439;-49
2022/03/21 07:38:09;;;;;;;31.10;19.53;;;14.20;58.70;;;;;;5082288;28;20498;-48
2022/03/21 07:40:36;;;;;;;29.87;19.80;;;14.10;58.00;;;;;;5081899;28;20455;-45
2022/03/21 07:43:03;;;;;;;25.83;18.87;;;14.20;58.20;;;;;;5082074;28;20434;-46
2022/03/21 07:48:17;;;;;;;25.07;16.00;;;14.30;58.40;;;;;;5081618;28;20464;-46
2022/03/21 07:50:44;;;;;;;31.70;18.73;;;14.10;57.90;;;;;;5079798;28;20434;-48
2022/03/21 07:53:12;;;;;;;25.30;18.30;;;14.00;58.10;;;;;;5080661;28;20431;-47
2022/03/21 07:55:40;;;;;;;27.37;17.97;;;14.50;57.70;;;;;;5081904;28;20629;-48
2022/03/21 07:58:07;;;;;;;30.03;17.17;;;14.40;57.10;;;;;;5081915;28;20443;-48
2022/03/21 08:00:34;;;;;;;30.03;18.00;;;12.80;59.20;;;;;;5082287;28;20457;-43
2022/03/21 08:03:04;;;;;;;23.83;16.13;;;13.20;59.60;;;;;;5082149;28;20827;-47
2022/03/21 08:05:32;;;;;;;20.57;15.73;;;14.80;57.30;;;;;;5081050;28;20506;-47
2022/03/21 08:07:59;;;;;;;24.43;17.37;;;15.90;56.10;;;;;;5080502;28;20423;-47
2022/03/21 08:10:29;;;;;;;24.53;16.43;;;15.60;55.30;;;;;;5081110;28;20465;-48
2022/03/21 08:12:58;;;;;;;21.50;16.33;;;15.80;55.40;;;;;;5061740;28;20637;-48
2022/03/21 08:15:28;;;;;;;30.67;17.47;;;17.20;54.10;;;;;;5061065;28;20440;-46
2022/03/21 08:17:59;;;;;;;21.67;15.17;;;17.20;53.20;;;;;;5060219;28;20410;-45
2022/03/21 08:20:33;;;;;;;22.90;16.90;;;17.20;52.80;;;;;;5061341;28;20626;-46
2022/03/21 08:23:04;;;;;;;21.20;15.30;;;18.30;51.10;;;;;;5061044;28;20500;-47
2022/03/21 08:25:32;;;;;;;19.97;12.10;;;17.60;50.70;;;;;;5060499;28;20613;-46
2022/03/21 08:28:00;;;;;;;14.93;13.27;;;16.80;51.60;;;;;;5060849;28;20407;-49
2022/03/21 08:30:32;;;;;;;14.63;12.17;;;15.20;53.40;;;;;;5060264;28;20422;-48
2022/03/21 08:33:01;;;;;;;16.77;12.30;;;14.70;54.40;;;;;;5060629;28;20429;-49
2022/03/21 08:35:33;;;;;;;19.97;14.87;;;14.90;54.00;;;;;;5060100;28;20435;-47
2022/03/21 08:38:00;;;;;;;16.27;12.10;;;14.50;53.90;;;;;;5060389;28;20429;-48
2022/03/21 08:40:28;;;;;;;16.70;13.10;;;15.50;53.90;;;;;;5060304;28;20558;-48
2022/03/21 08:42:56;;;;;;;11.57;10.37;;;16.10;52.50;;;;;;5060553;28;20424;-49
2022/03/21 08:45:24;;;;;;;14.07;11.10;;;16.20;52.30;;;;;;5060756;28;20403;-48
2022/03/21 08:47:51;;;;;;;20.93;13.17;;;16.50;52.10;;;;;;5060421;28;20764;-50
2022/03/21 08:50:23;;;;;;;13.63;10.63;;;16.20;51.90;;;;;;5060452;28;20432;-47
2022/03/21 08:52:51;;;;;;;14.13;12.13;;;16.50;51.30;;;;;;5060497;28;20514;-50
2022/03/21 08:55:18;;;;;;;16.00;11.13;;;17.30;50.80;;;;;;5060044;28;20431;-49
2022/03/21 08:57:46;;;;;;;15.70;12.07;;;16.80;51.10;;;;;;5060636;28;20436;-47
2022/03/21 09:00:13;;;;;;;12.17;10.10;;;17.10;50.40;;;;;;5060098;28;20476;-47
2022/03/21 09:02:41;;;;;;;16.80;10.53;;;17.20;49.40;;;;;;5071513;28;20421;-49
2022/03/21 09:05:12;;;;;;;15.50;10.70;;;16.50;50.80;;;;;;5077757;28;20416;-50
2022/03/21 09:07:40;;;;;;;13.47;10.80;;;15.80;51.20;;;;;;5079713;28;20594;-46
2022/03/21 09:10:11;;;;;;;12.70;10.90;;;15.90;51.70;;;;;;5078380;28;20866;-50
2022/03/21 09:12:38;;;;;;;17.80;11.83;;;16.10;51.10;;;;;;5080212;28;20433;-51
2022/03/21 09:15:06;;;;;;;14.10;10.90;;;17.20;49.60;;;;;;5081166;28;20406;-47
2022/03/21 09:17:36;;;;;;;18.30;11.37;;;17.50;49.00;;;;;;5091473;28;20491;-45
2022/03/21 09:20:05;;;;;;;14.87;11.97;;;17.00;49.50;;;;;;5090893;28;20805;-49
2022/03/21 09:22:33;;;;;;;15.73;10.70;;;17.30;49.80;;;;;;5088340;28;20507;-46
2022/03/21 09:25:00;;;;;;;11.27;10.07;;;16.30;49.80;;;;;;5098000;28;20424;-49
2022/03/21 09:27:28;;;;;;;17.87;11.87;;;15.50;50.40;;;;;;5099042;28;20423;-50
2022/03/21 09:29:55;;;;;;;11.73;9.27;;;15.90;50.40;;;;;;5091972;28;20805;-47
2022/03/21 09:32:22;;;;;;;16.90;10.53;;;15.60;52.20;;;;;;5098711;28;20472;-49
2022/03/21 09:34:50;;;;;;;19.20;9.70;;;15.80;51.20;;;;;;5099727;28;20437;-49
2022/03/21 09:37:17;;;;;;;15.57;10.40;;;15.00;52.30;;;;;;5099618;28;20727;-47
2022/03/21 09:39:45;;;;;;;13.55;10.45;;;13.70;53.70;;;;;;5099992;28;20830;-44
2022/03/21 09:42:14;;;;;;;9.55;8.45;;;13.10;54.20;;;;;;5100130;28;20195;-46
2022/03/21 09:44:42;;;;;;;12.77;10.88;;;12.60;55.40;;;;;;5100888;28;20202;-45
2022/03/21 09:49:58;;;;;;;12.32;7.60;;;12.70;54.30;;;;;;5100543;28;20223;-49
2022/03/21 09:52:27;;;;;;;11.80;9.05;;;12.20;53.90;;;;;;5102994;28;20211;-53
2022/03/21 09:54:55;;;;;;;12.93;9.55;;;12.10;55.00;;;;;;5106261;28;20205;-45
2022/03/21 09:57:25;;;;;;;11.02;8.10;;;12.00;54.10;;;;;;5109314;28;20209;-48
2022/03/21 09:59:55;;;;;;;12.60;7.78;;;11.80;53.90;;;;;;5099733;28;20202;-46
2022/03/21 10:02:22;;;;;;;17.83;8.93;;;11.50;54.20;;;;;;5099491;28;20194;-48
2022/03/21 10:04:50;;;;;;;10.90;7.28;;;11.60;55.00;;;;;;5099481;28;20630;-47
2022/03/21 10:07:25;;;;;;;8.80;7.25;;;11.90;54.90;;;;;;5098939;28;20204;-46
2022/03/21 10:10:10;;;;;;;14.00;8.65;;;11.90;54.00;;;;;;5100701;28;20260;-46
2022/03/21 10:12:37;;;;;;;21.33;13.73;;;11.80;53.30;;;;;;5100331;28;20236;-48
2022/03/21 10:15:09;;;;;;;27.80;13.20;;;11.80;54.30;;;;;;5099436;28;20512;-47
2022/03/21 10:17:37;;;;;;;12.52;8.63;;;11.80;54.00;;;;;;5099912;28;20208;-49
2022/03/21 10:20:08;;;;;;;12.38;8.20;;;11.50;54.50;;;;;;5101312;28;20239;-48
2022/03/21 10:22:43;;;;;;;12.35;9.10;;;11.50;54.70;;;;;;5100504;28;20559;-49
2022/03/21 10:25:16;;;;;;;13.90;9.70;;;11.50;54.90;;;;;;5104338;28;20193;-44
2022/03/21 10:27:45;;;;;;;10.25;7.80;;;11.40;55.00;;;;;;5103925;28;20207;-47
2022/03/21 10:30:22;;;;;;;12.27;7.80;;;11.50;55.40;;;;;;5103426;28;20277;-48
2022/03/21 10:32:57;;;;;;;13.02;9.15;;;11.50;54.80;;;;;;5103889;28;20198;-48
2022/03/21 10:35:30;;;;;;;14.68;8.02;;;11.50;55.20;;;;;;5102784;28;20532;-50
2022/03/21 10:38:02;;;;;;;10.60;9.13;;;11.50;54.90;;;;;;5103334;28;20370;-46
2022/03/21 10:40:41;;;;;;;9.65;7.70;;;11.40;55.30;;;;;;5102886;28;20232;-48
2022/03/21 10:43:18;;;;;;;12.52;8.15;;;11.40;55.10;;;;;;5102925;28;20193;-46
2022/03/21 10:45:51;;;;;;;11.30;8.07;;;11.40;55.10;;;;;;5107449;28;20193;-53
2022/03/21 10:48:24;;;;;;;10.32;9.27;;;11.50;54.80;;;;;;5113239;28;20413;-51
2022/03/21 10:50:55;;;;;;;11.57;7.50;;;11.60;55.30;;;;;;5113495;28;20214;-50
2022/03/21 10:53:25;;;;;;;10.73;8.05;;;11.50;54.80;;;;;;5107976;28;20212;-48
2022/03/21 10:55:58;;;;;;;11.13;8.00;;;11.70;53.10;;;;;;5103363;28;20220;-49
2022/03/21 10:58:37;;;;;;;16.23;8.38;;;11.60;53.10;;;;;;5102507;28;20194;-47
2022/03/21 11:01:19;;;;;;;9.00;7.38;;;11.50;53.70;;;;;;5102992;28;20228;-50
2022/03/21 11:03:51;;;;;;;9.32;6.03;;;11.60;54.20;;;;;;5101446;28;20209;-49
2022/03/21 11:06:19;;;;;;;14.32;8.15;;;11.70;52.80;;;;;;5102752;28;20202;-48
2022/03/21 11:08:50;;;;;;;12.30;8.65;;;11.60;53.40;;;;;;5102771;28;20451;-51
2022/03/21 11:11:18;;;;;;;9.93;6.82;;;11.60;53.60;;;;;;5102788;28;20214;-48
2022/03/21 11:13:46;;;;;;;7.68;6.28;;;11.70;51.80;;;;;;5103054;28;20194;-47
2022/03/21 11:16:17;;;;;;;11.93;7.93;;;11.80;52.30;;;;;;5103389;28;20194;-44
2022/03/21 11:18:51;;;;;;;12.68;6.75;;;11.90;52.70;;;;;;5106187;28;20194;-49
2022/03/21 11:21:19;;;;;;;10.75;6.93;;;11.70;51.70;;;;;;5102474;28;20214;-48
2022/03/21 11:23:48;;;;;;;7.90;6.30;;;11.90;51.90;;;;;;5102740;28;20194;-51
2022/03/21 11:26:33;;;;;;;6.03;5.45;;;11.80;51.80;;;;;;5102201;28;20194;-47
2022/03/21 11:29:14;;;;;;;7.57;6.30;;;11.80;51.90;;;;;;5102571;28;20263;-50
2022/03/21 11:32:06;;;;;;;10.10;6.70;;;11.70;51.10;;;;;;5102298;28;20416;-47
2022/03/21 11:34:50;;;;;;;7.05;6.20;;;11.90;51.50;;;;;;5101747;28;20197;-47
2022/03/21 11:37:31;;;;;;;7.80;7.00;;;12.00;52.10;;;;;;5101451;28;20208;-47
2022/03/21 11:40:31;;;;;;;10.75;7.60;;;11.90;52.40;;;;;;5102159;28;20226;-46
2022/03/21 11:43:17;;;;;;;7.95;6.60;;;11.90;52.50;;;;;;5102366;28;20385;-46
2022/03/21 11:45:54;;;;;;;8.00;6.00;;;11.90;52.40;;;;;;5102625;28;20269;-50
2022/03/21 11:48:22;;;;;;;10.95;6.97;;;12.00;52.10;;;;;;5100116;28;20193;-46
2022/03/21 11:50:55;;;;;;;10.40;6.80;;;11.90;51.60;;;;;;5101968;28;20263;-48
2022/03/21 11:53:31;;;;;;;12.35;6.00;;;11.90;52.40;;;;;;5101587;28;20202;-48
2022/03/21 11:55:59;;;;;;;6.95;6.25;;;11.90;51.70;;;;;;5102489;28;20202;-47
2022/03/21 11:58:39;;;;;;;7.22;6.57;;;12.10;52.50;;;;;;5101810;28;20584;-45
2022/03/21 12:01:12;;;;;;;11.90;8.25;;;12.20;52.10;;;;;;5101974;28;20214;-46
2022/03/21 12:03:42;;;;;;;8.10;6.78;;;12.20;52.90;;;;;;5101166;28;20206;-48
2022/03/21 12:06:27;;;;;;;9.90;8.10;;;12.20;52.50;;;;;;5101408;28;20481;-47
2022/03/21 12:09:12;;;;;;;8.73;6.22;;;12.10;53.20;;;;;;5101282;28;20197;-48
2022/03/21 12:11:39;;;;;;;7.60;5.95;;;12.20;51.80;;;;;;5101910;28;20290;-46
2022/03/21 12:14:28;;;;;;;8.25;6.00;;;12.10;51.10;;;;;;5101590;28;20194;-45
2022/03/21 12:17:01;;;;;;;10.68;7.40;;;12.00;51.20;;;;;;5101288;28;20202;-50
2022/03/21 12:20:02;;;;;;;11.23;7.75;;;12.10;52.30;;;;;;5100766;28;20230;-50
2022/03/21 12:22:53;;;;;;;9.82;6.18;;;12.30;52.90;;;;;;5101146;28;20186;-46
2022/03/21 12:25:41;;;;;;;11.40;7.85;;;12.30;52.10;;;;;;5100561;28;20518;-46
2022/03/21 12:31:24;;;;;;;11.88;8.75;;;12.20;52.30;;;;;;5101002;28;20293;-47
2022/03/21 12:33:52;;;;;;;9.15;8.02;;;12.30;52.90;;;;;;5103013;28;20190;-49
2022/03/21 12:36:32;;;;;;;12.52;8.80;;;12.30;52.50;;;;;;5102313;28;20202;-47
2022/03/21 12:39:00;;;;;;;11.93;7.93;;;12.30;52.10;;;;;;5101153;28;20194;-48
2022/03/21 12:41:34;;;;;;;8.82;7.70;;;12.30;52.60;;;;;;5100327;28;20221;-48
2022/03/21 12:44:02;;;;;;;10.55;8.32;;;12.30;52.20;;;;;;5101256;28;20201;-47
2022/03/21 12:46:29;;;;;;;10.93;8.02;;;12.30;52.60;;;;;;5100514;28;20194;-48
2022/03/21 12:48:59;;;;;;;11.23;7.80;;;12.30;52.80;;;;;;5102526;28;20390;-47
2022/03/21 12:51:28;;;;;;;13.80;8.98;;;12.50;52.70;;;;;;5101609;28;20549;-48
2022/03/21 12:54:15;;;;;;;11.68;7.90;;;12.40;52.10;;;;;;5101682;28;20190;-45
2022/03/21 12:56:42;;;;;;;7.90;7.10;;;12.50;51.50;;;;;;5100817;28;20541;-47
2022/03/21 12:59:10;;;;;;;8.73;7.15;;;12.40;51.60;;;;;;5101465;28;20194;-49
2022/03/21 13:01:42;;;;;;;11.80;7.22;;;12.40;51.60;;;;;;5100573;28;20215;-48
2022/03/21 13:12:35;;;;;;;13.63;9.85;;;12.50;51.60;;;;;;5100228;28;20424;-49
2022/03/21 13:15:07;;;;;;;10.63;7.85;;;12.60;51.90;;;;;;5099919;28;20517;-47
2022/03/21 13:17:50;;;;;;;10.88;8.50;;;12.60;50.90;;;;;;5100187;28;20235;-51
2022/03/21 13:20:26;;;;;;;10.32;9.05;;;12.50;51.60;;;;;;5099670;28;20529;-49
2022/03/21 13:22:55;;;;;;;10.73;9.73;;;12.40;51.20;;;;;;5100354;28;20190;-49